Flight Track Log - Related Links

Times and Time Zones

All times are in EDT time to prevent confusion due to time zone crossing. See the N96FB flight status page for this flight to view local times or setup timezone preferences in your user account.

Time Position Orientation Groundspeed Altitude Reporting Facility
EDT Latitude Longitude Course Direction KTS MPH feet Rate Location/Type
Thu 05:06:01 PM 39.5167 -104.9000 339° North 193 222 9,300  Level Denver TRACON
Thu 05:06:16 PM 39.5042 -104.8925 155° Southeast 196 226 9,700 2,182 Climbing Denver Center
Thu 05:07:18 PM 39.4614 -104.8558 147° Southeast 197 227 12,100 2,081 Climbing Denver Center
Thu 05:08:20 PM 39.5000 -104.8222 34° Northeast 173 199 14,000 1,790 Climbing Denver Center
Thu 05:09:22 PM 39.5414 -104.7944 27° Northeast 169 194 15,800 1,306 Climbing Denver Center
Thu 05:10:00 PM 40.0407 -104.7548 344° North  Level FlightAware Approximate
Thu 05:10:24 PM 39.5850 -104.7619 30° Northeast 170 196 16,700  Level Denver Center
Thu 05:11:00 PM 40.1249 -104.7875 339° North  Level FlightAware Approximate
Thu 05:11:26 PM 39.6397 -104.7194 31° Northeast 220 253 17,100  Level Denver Center
Thu 05:12:28 PM 39.6978 -104.6772 29° Northeast 225 259 18,700 1,258 Climbing Denver Center
Thu 05:13:30 PM 39.7522 -104.6369 30° Northeast 226 260 19,700 1,024 Climbing Denver Center
Thu 05:14:31 PM 39.8047 -104.6294 North 235 270 20,800 1,306 Climbing Denver Center
Thu 05:15:34 PM 39.8789 -104.6478 349° North 228 262 22,400 1,296 Climbing Denver Center
Thu 05:16:36 PM 39.9431 -104.6761 341° North 228 262 23,500 1,065 Climbing Denver Center
Thu 05:17:38 PM 40.0025 -104.7092 337° Northwest 234 269 24,600 1,016 Climbing Denver Center
Thu 05:18:40 PM 40.0664 -104.7478 335° Northwest 237 273 25,600 968 Climbing Denver Center
Thu 05:19:42 PM 40.1269 -104.7803 338° Northwest 236 272 26,600 794 Climbing Denver Center
Thu 05:20:56 PM 40.1847 -104.8244 330° Northwest 241 277 27,400 618 Climbing Denver Center
Thu 05:21:58 PM 40.2297 -104.9211 301° West 257 296 28,000 265 Climbing Denver Center
Thu 05:23:12 PM 40.2747 -105.0156 302° West 282 325 28,000  Level Denver Center
Thu 05:24:15 PM 40.3322 -105.1275 304° West 304 350 28,000  Level Denver Center
Thu 05:25:17 PM 40.3806 -105.2250 303° West 317 365 28,000  Level Denver Center
Thu 05:26:19 PM 40.4303 -105.3283 302° West 312 359 28,000  Level Denver Center
Thu 05:27:21 PM 40.4819 -105.4297 304° West 320 368 28,000  Level Denver Center
Thu 05:28:23 PM 40.5294 -105.5272 303° West 319 367 28,000  Level Denver Center
Thu 05:29:25 PM 40.5761 -105.6264 302° West 321 369 28,000  Level Denver Center
Thu 05:30:27 PM 40.6239 -105.7247 303° West 318 366 28,000  Level Denver Center
Thu 05:31:29 PM 40.6697 -105.8214 302° West 314 361 28,000  Level Denver Center
Thu 05:32:31 PM 40.7147 -105.9175 302° West 310 357 28,000  Level Denver Center
Thu 05:33:33 PM 40.7681 -106.0317 302° West 306 352 28,000  Level Denver Center
Thu 05:35:40 PM 40.8689 -106.2417 302° West 313 360 28,000  Level Salt Lake Center
Thu 05:36:41 PM 40.9131 -106.3361 302° West 315 362 28,000  Level Salt Lake Center
Thu 05:37:41 PM 40.9592 -106.4311 303° West 319 367 28,000  Level Denver Center
Thu 05:38:43 PM 41.0103 -106.5428 301° West 319 367 28,000  Level Denver Center
Thu 05:39:45 PM 41.0550 -106.6369 302° West 316 364 28,000  Level Denver Center
Thu 05:40:47 PM 41.1069 -106.7475 302° West 318 366 28,000  Level Denver Center
Thu 05:41:49 PM 41.1519 -106.8431 302° West 320 368 28,000  Level Denver Center
Thu 05:42:51 PM 41.2008 -106.9531 301° West 314 361 28,000  Level Denver Center
Thu 05:43:53 PM 41.2442 -107.0478 301° West 315 362 28,000  Level Denver Center
Thu 05:44:55 PM 41.2964 -107.1561 303° West 313 360 28,000  Level Denver Center
Thu 05:45:57 PM 41.3378 -107.2508 300° West 312 359 28,000  Level Denver Center
Thu 05:46:59 PM 41.3883 -107.3631 301° West 316 364 28,000  Level Denver Center
Thu 05:48:01 PM 41.4311 -107.4578 301° West 314 361 28,000  Level Denver Center
Thu 05:49:03 PM 41.4750 -107.5531 302° West 315 362 28,000  Level Denver Center
Thu 05:50:05 PM 41.5239 -107.6653 300° West 315 362 28,000  Level Denver Center
Thu 05:51:07 PM 41.5692 -107.7606 302° West 317 365 28,000  Level Denver Center
Thu 05:52:10 PM 41.6183 -107.8739 300° West 316 364 28,000  Level Denver Center
Thu 05:53:24 PM 41.6767 -108.0031 301° West 318 366 28,000  Level Denver Center
Thu 05:54:26 PM 41.7128 -108.0850 301° West 320 368 28,000  Level Denver Center
Thu 05:55:15 PM 41.7578 -108.1825 302° West 319 367 28,000  Level Salt Lake Center
Thu 05:56:17 PM 41.8075 -108.2986 300° West 321 369 28,000  Level Salt Lake Center
Thu 05:57:19 PM 41.8511 -108.3961 301° West 321 369 28,000  Level Salt Lake Center
Thu 05:58:21 PM 41.9014 -108.5131 300° West 323 372 28,000  Level Salt Lake Center
Thu 05:59:23 PM 41.9436 -108.6106 300° West 320 368 28,000  Level Salt Lake Center
Thu 06:00:25 PM 41.9950 -108.7250 301° West 320 368 28,000  Level Salt Lake Center
Thu 06:01:27 PM 42.0372 -108.8233 300° West 320 368 28,000  Level Salt Lake Center
Thu 06:02:28 PM 42.0872 -108.9392 300° West 321 369 28,000  Level Salt Lake Center
Thu 06:03:30 PM 42.1292 -109.0381 300° West 319 367 28,000  Level Salt Lake Center
Thu 06:04:32 PM 42.1786 -109.1517 300° West 317 365 28,000  Level Salt Lake Center
Thu 06:05:34 PM 42.2206 -109.2497 300° West 316 364 28,000  Level Salt Lake Center
Thu 06:06:36 PM 42.2692 -109.3667 299° West 320 368 28,000  Level Salt Lake Center
Thu 06:07:38 PM 42.3103 -109.4653 299° West 317 365 28,000  Level Salt Lake Center
Thu 06:08:40 PM 42.3594 -109.5806 300° West 317 365 28,000  Level Salt Lake Center
Thu 06:09:42 PM 42.4011 -109.6806 299° West 319 367 28,000  Level Salt Lake Center
Thu 06:10:43 PM 42.4431 -109.7800 300° West 318 366 28,000  Level Salt Lake Center
Thu 06:11:45 PM 42.4925 -109.8969 300° West 321 369 28,000  Level Salt Lake Center
Thu 06:12:47 PM 42.5350 -109.9969 300° West 319 367 28,000  Level Salt Lake Center
Thu 06:13:49 PM 42.5833 -110.1136 299° West 318 366 28,000  Level Salt Lake Center
Thu 06:14:51 PM 42.6250 -110.2131 300° West 318 366 28,000  Level Salt Lake Center
Thu 06:15:53 PM 42.6728 -110.3311 299° West 318 366 28,000  Level Salt Lake Center
Thu 06:16:55 PM 42.7147 -110.4294 300° West 314 361 28,000  Level Salt Lake Center
Thu 06:17:56 PM 42.7625 -110.5469 299° West 318 366 28,000  Level Salt Lake Center
Thu 06:18:58 PM 42.8092 -110.6517 301° West 315 362 28,000  Level Salt Lake Center
Thu 06:20:00 PM 42.8508 -110.7531 299° West 319 367 28,000  Level Salt Lake Center
Thu 06:21:02 PM 42.8969 -110.8717 298° West 318 366 28,000  Level Salt Lake Center
Thu 06:22:04 PM 42.9381 -110.9717 299° West 315 362 28,000  Level Salt Lake Center
Thu 06:23:06 PM 42.9708 -111.0758 293° West 312 359 28,000  Level Salt Lake Center
Thu 06:24:08 PM 42.9747 -111.2164 272° West 328 377 28,000  Level Salt Lake Center
Thu 06:25:10 PM 42.9783 -111.3328 272° West 323 372 28,000  Level Salt Lake Center
Thu 06:26:12 PM 42.9831 -111.4717 273° West 330 380 28,000 49 Level Salt Lake Center
Thu 06:27:13 PM 42.9858 -111.5864 272° West 325 374 28,100 49 Climbing Salt Lake Center
Thu 06:28:15 PM 42.9819 -111.7236 268° West 325 374 28,100  Level Salt Lake Center
Thu 06:29:17 PM 42.9825 -111.8367 270° West 317 365 28,100  Level Salt Lake Center
Thu 06:30:19 PM 43.0000 -111.9656 281° West 311 358 28,100  Level Salt Lake Center
Thu 06:31:21 PM 43.0403 -112.0606 300° West 302 348 28,100  Level Salt Lake Center
Thu 06:32:23 PM 43.0822 -112.1525 302° West 299 344 28,100  Level Salt Lake Center
Thu 06:33:24 PM 43.1303 -112.2608 301° West 299 344 28,100  Level Salt Lake Center
Thu 06:34:26 PM 43.1711 -112.3547 301° West 301 346 28,100  Level Salt Lake Center
Thu 06:35:28 PM 43.2203 -112.4675 301° West 306 352 28,100  Level Salt Lake Center
Thu 06:36:30 PM 43.2628 -112.5622 302° West 306 352 28,100  Level Salt Lake Center
Thu 06:37:32 PM 43.3100 -112.6728 300° West 301 346 28,100  Level Salt Lake Center
Thu 06:38:33 PM 43.3503 -112.7694 300° West 303 349 28,100  Level Salt Lake Center
Thu 06:39:35 PM 43.3942 -112.8664 302° West 310 357 28,100  Level Salt Lake Center
Thu 06:40:37 PM 43.4411 -112.9789 300° West 306 352 28,100  Level Salt Lake Center
Thu 06:41:38 PM 43.4817 -113.0750 300° West 304 350 28,100  Level Salt Lake Center
Thu 06:42:40 PM 43.5300 -113.1864 301° West 301 346 28,100  Level Salt Lake Center
Thu 06:43:42 PM 43.5689 -113.2811 300° West 296 341 28,100  Level Salt Lake Center
Thu 06:44:44 PM 43.6147 -113.3903 300° West 293 337 28,100  Level Salt Lake Center
Thu 06:45:45 PM 43.6547 -113.4889 299° West 302 348 28,100  Level Salt Lake Center
Thu 06:46:47 PM 43.7006 -113.5939 301° West 331 381 28,100  Level Salt Lake Center
Thu 06:47:49 PM 43.7497 -113.7125 300° West 323 372 28,100  Level Salt Lake Center
Thu 06:48:50 PM 43.7922 -113.8144 300° West 320 368 28,100  Level Salt Lake Center
Thu 06:49:52 PM 43.8425 -113.9353 300° West 320 368 28,100  Level Salt Lake Center
Thu 06:50:54 PM 43.8847 -114.0375 300° West 318 366 28,100  Level Salt Lake Center
Thu 06:51:55 PM 43.9244 -114.1403 298° West 316 364 28,100  Level Salt Lake Center
Thu 06:52:57 PM 43.9722 -114.2583 299° West 315 362 28,100  Level Salt Lake Center
Thu 06:53:59 PM 44.0183 -114.3567 303° West 316 364 28,100  Level Salt Lake Center
Thu 06:55:00 PM 44.0656 -114.4750 299° West 314 361 28,100  Level Salt Lake Center
Thu 06:56:02 PM 44.1064 -114.5761 299° West 314 361 28,100  Level Salt Lake Center
Thu 06:57:04 PM 44.1528 -114.6947 299° West 312 359 28,100  Level Salt Lake Center
Thu 06:58:05 PM 44.1944 -114.7961 300° West 314 361 28,100  Level Salt Lake Center
Thu 06:59:07 PM 44.2347 -114.8986 299° West 314 361 28,100  Level Salt Lake Center
Thu 07:00:08 PM 44.2808 -115.0172 299° West 312 359 28,100  Level Salt Lake Center
Thu 07:01:10 PM 44.3211 -115.1183 299° West 311 358 28,100  Level Salt Lake Center
Thu 07:02:11 PM 44.3664 -115.2389 298° West 313 360 28,100  Level Salt Lake Center
Thu 07:03:13 PM 44.4067 -115.3414 299° West 315 362 28,100  Level Salt Lake Center
Thu 07:04:14 PM 44.4525 -115.4611 298° West 314 361 28,100  Level Salt Lake Center
Thu 07:05:16 PM 44.4928 -115.5631 299° West 314 361 28,100  Level Salt Lake Center
Thu 07:06:18 PM 44.5319 -115.6672 298° West 315 362 28,100  Level Salt Lake Center
Thu 07:07:19 PM 44.5789 -115.7881 299° West 317 365 28,100  Level Salt Lake Center
Thu 07:08:21 PM 44.6197 -115.8917 299° West 320 368 28,100  Level Salt Lake Center
Thu 07:09:22 PM 44.6669 -116.0133 299° West 320 368 28,100  Level Salt Lake Center
Thu 07:10:24 PM 44.7069 -116.1178 298° West 320 368 28,100  Level Salt Lake Center
Thu 07:11:25 PM 44.7528 -116.2408 298° West 321 369 28,100  Level Salt Lake Center
Thu 07:12:27 PM 44.7919 -116.3453 298° West 319 367 28,100  Level Salt Lake Center
Thu 07:13:29 PM 44.8392 -116.4672 299° West 317 365 28,100  Level Salt Lake Center
Thu 07:14:30 PM 44.8783 -116.5722 298° West 318 366 28,100  Level Salt Lake Center
Thu 07:15:28 PM 44.9169 -116.6786 297° West 317 365 28,100  Level Seattle Center
Thu 07:16:29 PM 44.9561 -116.7819 298° West 315 362 28,100  Level Seattle Center
Thu 07:17:30 PM 45.0017 -116.9047 298° West 315 362 28,100  Level Seattle Center
Thu 07:18:31 PM 45.0406 -117.0094 298° West 316 364 28,100  Level Seattle Center
Thu 07:19:32 PM 45.0844 -117.1294 297° West 308 354 28,100  Level Seattle Center
Thu 07:20:33 PM 45.1194 -117.2219 298° West 281 323 28,100  Level Seattle Center
Thu 07:21:34 PM 45.1528 -117.3114 298° West 267 307 28,100  Level Seattle Center
Thu 07:22:35 PM 45.1864 -117.4136 295° West 260 299 28,100  Level Seattle Center
Thu 07:23:36 PM 45.2203 -117.5019 299° West 255 293 28,100 -49 Level Seattle Center
Thu 07:24:37 PM 45.2514 -117.5933 296° West 258 297 28,000 -1,131 Descending Seattle Center
Thu 07:25:38 PM 45.2869 -117.6936 297° West 287 330 25,800 -1,869 Descending Seattle Center
Thu 07:26:39 PM 45.3275 -117.8028 298° West 312 359 24,200 -1,525 Descending Seattle Center
Thu 07:27:40 PM 45.3658 -117.9025 299° West 291 335 22,700 -1,574 Descending Seattle Center
Thu 07:28:41 PM 45.4039 -118.0047 298° West 289 333 21,000 -1,967 Descending Seattle Center
Thu 07:29:42 PM 45.4389 -118.1081 296° West 293 337 18,700 -2,311 Descending Seattle Center
Thu 07:30:43 PM 45.4733 -118.2119 295° West 292 336 16,300 -2,557 Descending Seattle Center
Thu 07:31:44 PM 45.5181 -118.3386 297° West 298 343 13,500 -2,508 Descending Seattle Center
Thu 07:32:45 PM 45.5572 -118.4444 298° West 303 349 11,200 -2,066 Descending Seattle Center
Thu 07:33:46 PM 45.5939 -118.5447 298° West 295 339 9,300 -1,967 Descending Seattle Center
Thu 07:34:47 PM 45.6286 -118.6258 301° West 260 299 7,200 -1,918 Descending Seattle Center
Thu 07:35:48 PM 45.6494 -118.7028 291° West 239 275 5,400 -1,610 Descending Seattle Center
Thu 07:36:50 PM 45.6542 -118.7775 275° West 212 244 3,900 -1,024 Descending Seattle Center
Thu 07:37:51 PM 45.6839 -118.8300 309° West 200 230 3,300 -590 Descending Seattle Center

Login

Don't have an account? Register now (free) for customized features, flight alerts, and more!